createdAt,value
2024-04-30T00:00:42.468Z,8.82
2024-04-30T00:03:09.439Z,9.93
2024-04-30T00:05:36.398Z,12.45
2024-04-30T00:08:03.535Z,8.75
2024-04-30T00:10:30.497Z,7.63
2024-04-30T00:12:57.452Z,11.48
2024-04-30T00:15:24.421Z,8.60
2024-04-30T00:17:51.635Z,7.95
2024-04-30T00:20:18.624Z,7.20
2024-04-30T00:22:45.555Z,10.43
2024-04-30T00:25:12.582Z,5.82
2024-04-30T00:27:39.634Z,4.80
2024-04-30T00:30:07.060Z,3.95
2024-04-30T00:32:34.058Z,6.50
2024-04-30T00:35:01.056Z,9.35
2024-04-30T00:37:27.975Z,12.98
2024-04-30T00:39:54.897Z,9.73
2024-04-30T00:42:21.741Z,11.13
2024-04-30T00:44:48.712Z,4.43
2024-04-30T00:47:15.796Z,8.52
2024-04-30T00:49:43.219Z,6.15
2024-04-30T00:52:10.320Z,6.50
2024-04-30T00:54:37.195Z,5.50
2024-04-30T00:57:04.425Z,3.42
2024-04-30T00:59:31.329Z,4.03
2024-04-30T01:01:58.290Z,7.35
2024-04-30T01:04:25.170Z,12.98
2024-04-30T01:06:52.097Z,8.38
2024-04-30T01:09:18.975Z,4.68
2024-04-30T01:11:46.570Z,4.40
2024-04-30T01:14:13.538Z,7.10
2024-04-30T01:16:40.445Z,6.00
2024-04-30T01:19:07.362Z,4.35
2024-04-30T01:21:34.214Z,5.93
2024-04-30T01:24:01.058Z,5.45
2024-04-30T01:26:27.940Z,4.22
2024-04-30T01:28:54.967Z,11.40
2024-04-30T01:31:22.319Z,6.75
2024-04-30T01:33:49.313Z,8.80
2024-04-30T01:36:16.216Z,3.75
2024-04-30T01:38:43.089Z,4.05
2024-04-30T01:41:09.930Z,5.80
2024-04-30T01:43:36.893Z,7.78
2024-04-30T01:46:06.274Z,0.68
2024-04-30T01:48:33.262Z,4.95
2024-04-30T01:51:00.349Z,4.32
2024-04-30T01:53:27.238Z,4.22
2024-04-30T01:55:54.157Z,4.35
2024-04-30T01:58:21.057Z,2.00
2024-04-30T02:00:47.972Z,2.33
2024-04-30T02:03:14.906Z,3.22
2024-04-30T02:05:41.769Z,3.17
2024-04-30T02:08:08.641Z,2.25
2024-04-30T02:10:35.613Z,4.00
2024-04-30T02:13:02.795Z,5.30
2024-04-30T02:15:29.688Z,8.07
2024-04-30T02:17:56.692Z,6.82
2024-04-30T02:20:23.627Z,3.50
2024-04-30T02:22:50.455Z,3.80
2024-04-30T02:25:17.381Z,1.58
2024-04-30T02:27:44.371Z,4.57
2024-04-30T02:30:27.955Z,6.50
2024-04-30T02:33:13.433Z,2.88
2024-04-30T02:35:40.413Z,1.30
2024-04-30T02:38:07.330Z,3.53
2024-04-30T02:40:34.325Z,4.15
2024-04-30T02:43:01.394Z,3.55
2024-04-30T02:45:28.365Z,2.95
2024-04-30T02:47:55.306Z,2.13
2024-04-30T02:50:22.211Z,3.10
2024-04-30T02:52:49.092Z,3.72
2024-04-30T02:55:15.993Z,6.20
2024-04-30T02:57:42.862Z,1.40
2024-04-30T03:00:09.982Z,3.60
2024-04-30T03:02:36.977Z,2.03
2024-04-30T03:05:04.183Z,5.25
2024-04-30T03:07:31.173Z,5.00
2024-04-30T03:09:58.354Z,3.53
2024-04-30T03:12:25.243Z,0.98
2024-04-30T03:14:52.094Z,4.22
2024-04-30T03:17:19.051Z,2.30
2024-04-30T03:19:46.014Z,1.10
2024-04-30T03:22:13.011Z,1.75
2024-04-30T03:24:39.945Z,2.45
2024-04-30T03:27:07.085Z,3.13
2024-04-30T03:29:33.980Z,3.40
2024-04-30T03:32:00.881Z,2.08
2024-04-30T03:34:27.790Z,3.05
2024-04-30T03:36:54.649Z,1.40
2024-04-30T03:39:21.580Z,3.50
2024-04-30T03:41:48.446Z,1.52
2024-04-30T03:44:15.323Z,1.20
2024-04-30T03:46:42.285Z,1.35
2024-04-30T03:49:09.265Z,4.03
2024-04-30T03:51:36.157Z,3.78
2024-04-30T03:54:03.080Z,2.67
2024-04-30T03:56:30.027Z,4.15
2024-04-30T03:58:56.899Z,1.80
2024-04-30T04:01:23.860Z,8.27
2024-04-30T04:03:50.872Z,2.25
2024-04-30T04:06:17.963Z,1.40
2024-04-30T04:08:45.043Z,1.25
2024-04-30T04:11:30.705Z,6.43
2024-04-30T04:14:16.162Z,5.95
2024-04-30T04:16:43.064Z,2.80
2024-04-30T04:19:10.051Z,3.20
2024-04-30T04:21:37.006Z,6.45
2024-04-30T04:24:04.034Z,7.18
2024-04-30T04:26:30.934Z,3.28
2024-04-30T04:28:57.804Z,2.88
2024-04-30T04:31:24.748Z,4.28
2024-04-30T04:33:51.663Z,4.85
2024-04-30T04:36:18.571Z,1.73
2024-04-30T04:38:45.469Z,2.63
2024-04-30T04:41:12.330Z,4.97
2024-04-30T04:43:39.461Z,5.93
2024-04-30T04:46:06.522Z,4.53
2024-04-30T04:48:33.526Z,4.45
2024-04-30T04:51:00.586Z,6.57
2024-04-30T04:53:27.448Z,2.47
2024-04-30T04:55:54.368Z,1.60
2024-04-30T04:58:21.391Z,3.28
2024-04-30T05:00:50.313Z,4.28
2024-04-30T05:03:17.445Z,9.27
2024-04-30T05:05:44.363Z,5.88
2024-04-30T05:08:11.518Z,7.68
2024-04-30T05:10:38.569Z,4.43
2024-04-30T05:13:05.620Z,3.78
2024-04-30T05:15:32.609Z,2.35
2024-04-30T05:17:59.559Z,5.97
2024-04-30T05:20:26.489Z,4.97
2024-04-30T05:22:55.852Z,3.00
2024-04-30T05:25:23.192Z,5.35
2024-04-30T05:27:50.146Z,4.65
2024-04-30T05:30:17.058Z,2.53
2024-04-30T05:32:44.185Z,5.10
2024-04-30T05:35:11.705Z,7.18
2024-04-30T05:37:39.644Z,5.97
2024-04-30T05:40:07.417Z,3.60
2024-04-30T05:42:34.378Z,2.70
2024-04-30T05:45:01.264Z,6.00
2024-04-30T05:47:28.183Z,3.88
2024-04-30T05:49:55.553Z,3.40
2024-04-30T05:52:22.554Z,4.55
2024-04-30T05:54:49.643Z,7.72
2024-04-30T05:57:16.610Z,6.15
2024-04-30T05:59:43.552Z,6.63
2024-04-30T06:02:10.434Z,4.85
2024-04-30T06:04:37.378Z,3.63
2024-04-30T06:07:04.608Z,8.18
2024-04-30T06:09:31.541Z,5.60
2024-04-30T06:11:59.055Z,5.45
2024-04-30T06:14:25.990Z,4.85
2024-04-30T06:16:52.893Z,4.07
2024-04-30T06:19:19.880Z,6.40
2024-04-30T06:21:46.793Z,4.97
2024-04-30T06:24:13.719Z,7.03
2024-04-30T06:26:44.115Z,4.55
2024-04-30T06:29:13.456Z,2.90
2024-04-30T06:31:40.496Z,3.72
2024-04-30T06:34:07.552Z,8.63
2024-04-30T06:36:34.601Z,2.78
2024-04-30T06:39:01.555Z,5.55
2024-04-30T06:41:28.382Z,5.30
2024-04-30T06:43:55.256Z,4.28
2024-04-30T06:46:22.236Z,5.43
2024-04-30T06:48:49.381Z,13.68
2024-04-30T06:51:16.695Z,15.40
2024-04-30T06:53:43.764Z,9.00
2024-04-30T06:56:10.768Z,13.77
2024-04-30T06:58:37.731Z,22.08
2024-04-30T07:01:04.925Z,15.68
2024-04-30T07:03:32.041Z,20.52
2024-04-30T07:05:58.933Z,28.58
2024-04-30T07:08:25.858Z,12.70
2024-04-30T07:10:52.831Z,45.80
2024-04-30T07:13:19.846Z,51.03
2024-04-30T07:15:48.373Z,36.33
2024-04-30T07:18:15.384Z,13.50
2024-04-30T07:20:42.432Z,16.92
2024-04-30T07:23:09.336Z,22.02
2024-04-30T07:25:36.395Z,12.35
2024-04-30T07:28:05.187Z,59.88
2024-04-30T07:30:32.220Z,29.88
2024-04-30T07:32:59.313Z,28.67
2024-04-30T07:35:26.358Z,22.17
2024-04-30T07:37:53.392Z,6.40
2024-04-30T07:51:03.670Z,8.80
2024-04-30T07:53:30.576Z,8.32
2024-04-30T07:55:57.516Z,9.73
2024-04-30T07:58:24.412Z,11.82
2024-04-30T08:00:51.424Z,7.32
2024-04-30T08:03:18.361Z,19.20
2024-04-30T08:05:45.249Z,12.43
2024-04-30T08:08:13.770Z,14.57
2024-04-30T08:10:40.822Z,12.82
2024-04-30T08:13:10.763Z,28.95
2024-04-30T08:15:37.781Z,62.78
2024-04-30T08:18:05.277Z,10.75
2024-04-30T08:20:32.309Z,8.02
2024-04-30T08:22:59.335Z,10.27
2024-04-30T08:25:26.249Z,14.82
2024-04-30T08:27:53.192Z,15.98
2024-04-30T08:30:20.137Z,11.82
2024-04-30T08:32:47.574Z,6.63
2024-04-30T08:35:14.660Z,8.35
2024-04-30T08:37:51.404Z,13.85
2024-04-30T08:40:22.104Z,14.43
2024-04-30T08:42:50.898Z,10.27
2024-04-30T08:45:22.717Z,15.82
2024-04-30T08:47:52.066Z,15.20
2024-04-30T08:50:27.195Z,12.32
2024-04-30T08:52:55.852Z,33.70
2024-04-30T08:55:24.593Z,11.40
2024-04-30T08:57:51.557Z,6.32
2024-04-30T09:00:18.469Z,15.23
2024-04-30T09:02:52.446Z,25.42
2024-04-30T09:05:22.649Z,9.13
2024-04-30T09:07:50.345Z,10.75
2024-04-30T09:10:17.486Z,5.88
2024-04-30T09:12:44.426Z,9.05
2024-04-30T09:15:18.435Z,12.27
2024-04-30T09:17:45.610Z,11.43
2024-04-30T09:20:12.652Z,8.30
2024-04-30T09:22:49.830Z,10.73
2024-04-30T09:25:32.062Z,12.60
2024-04-30T09:27:59.031Z,49.25
2024-04-30T09:30:28.543Z,13.10
2024-04-30T09:32:55.838Z,8.52
2024-04-30T09:35:27.322Z,13.18
2024-04-30T09:40:26.710Z,8.70
2024-04-30T09:42:54.866Z,11.60
2024-04-30T09:45:22.634Z,16.95
2024-04-30T09:47:50.019Z,8.50
2024-04-30T09:50:18.708Z,13.85
2024-04-30T09:52:46.936Z,13.48
2024-04-30T09:55:15.490Z,10.85
2024-04-30T09:57:44.751Z,9.80
2024-04-30T10:00:12.693Z,16.27
2024-04-30T10:02:52.027Z,10.43
2024-04-30T10:05:33.319Z,15.13
2024-04-30T10:08:01.878Z,18.80
2024-04-30T10:10:30.443Z,10.52
2024-04-30T10:13:09.245Z,16.10
2024-04-30T10:15:36.352Z,7.90
2024-04-30T10:18:03.571Z,14.43
2024-04-30T10:20:31.697Z,11.20
2024-04-30T10:23:02.867Z,7.75
2024-04-30T10:25:30.902Z,8.77
2024-04-30T10:28:06.005Z,9.40
2024-04-30T10:30:33.325Z,9.50
2024-04-30T10:33:00.655Z,5.72
2024-04-30T10:35:27.908Z,5.20
2024-04-30T10:37:54.892Z,12.20
2024-04-30T10:40:23.597Z,8.20
2024-04-30T10:42:50.517Z,7.75
2024-04-30T10:45:24.236Z,7.60
2024-04-30T10:47:51.567Z,10.40
2024-04-30T10:50:20.011Z,12.10
2024-04-30T10:52:47.993Z,7.75
2024-04-30T10:55:18.873Z,12.65
2024-04-30T10:57:46.109Z,10.05
2024-04-30T11:00:13.544Z,9.60
2024-04-30T11:02:45.322Z,10.48
2024-04-30T11:05:17.592Z,7.32
2024-04-30T11:07:55.711Z,7.70
2024-04-30T11:10:30.297Z,9.43
2024-04-30T11:13:02.020Z,15.68
2024-04-30T11:15:29.013Z,13.23
2024-04-30T11:17:58.558Z,8.52
2024-04-30T11:20:25.698Z,7.53
2024-04-30T11:22:52.785Z,6.20
2024-04-30T11:25:19.817Z,10.73
2024-04-30T11:27:46.831Z,7.30
2024-04-30T11:30:13.756Z,7.97
2024-04-30T11:32:42.136Z,9.48
2024-04-30T11:35:09.158Z,3.72
2024-04-30T11:37:36.471Z,3.28
2024-04-30T11:40:03.895Z,2.00
2024-04-30T11:42:34.961Z,7.38
2024-04-30T11:45:14.691Z,1.92
2024-04-30T11:47:44.086Z,2.83
2024-04-30T11:50:11.153Z,3.38
2024-04-30T11:52:40.609Z,4.20
2024-04-30T11:55:15.271Z,2.00
2024-04-30T11:57:42.502Z,3.58
2024-04-30T12:00:11.754Z,2.75
2024-04-30T12:02:38.946Z,6.70
2024-04-30T12:05:06.626Z,2.72
2024-04-30T12:07:33.697Z,2.10
2024-04-30T12:10:04.203Z,1.33
2024-04-30T12:12:31.126Z,3.38
2024-04-30T12:14:58.025Z,2.83
2024-04-30T12:17:25.088Z,3.20
2024-04-30T12:19:52.163Z,1.70
2024-04-30T12:22:19.177Z,5.22
2024-04-30T12:24:46.408Z,10.20
2024-04-30T12:27:13.348Z,4.20
2024-04-30T12:29:40.267Z,3.35
2024-04-30T12:32:10.695Z,3.30
2024-04-30T12:34:38.942Z,8.27
2024-04-30T12:37:07.921Z,6.88
2024-04-30T12:39:35.209Z,6.63
2024-04-30T12:42:20.700Z,7.72
2024-04-30T12:44:57.638Z,2.85
2024-04-30T12:47:28.582Z,8.23
2024-04-30T12:49:57.953Z,3.45
2024-04-30T12:52:25.147Z,4.72
2024-04-30T12:54:58.005Z,4.63
2024-04-30T12:57:26.521Z,3.83
2024-04-30T12:59:55.702Z,5.97
2024-04-30T13:02:22.934Z,5.10
2024-04-30T13:04:51.439Z,4.13
2024-04-30T13:07:18.470Z,8.88
2024-04-30T13:09:45.461Z,7.65
2024-04-30T13:12:12.362Z,5.18
2024-04-30T13:14:39.662Z,4.68
2024-04-30T13:17:06.568Z,4.50
2024-04-30T13:19:33.699Z,7.00
2024-04-30T13:22:03.546Z,6.38
2024-04-30T13:24:33.695Z,7.63
2024-04-30T13:27:00.641Z,3.17
2024-04-30T13:29:27.600Z,5.03
2024-04-30T13:31:55.976Z,3.22
2024-04-30T13:34:22.945Z,4.25
2024-04-30T13:36:50.032Z,3.80
2024-04-30T13:39:20.166Z,2.90
2024-04-30T13:44:15.255Z,2.72
2024-04-30T13:46:44.252Z,3.40
2024-04-30T13:49:11.982Z,3.00
2024-04-30T13:51:50.761Z,3.25
2024-04-30T13:54:21.966Z,2.28
2024-04-30T13:59:20.156Z,4.60
2024-04-30T14:01:49.157Z,5.90
2024-04-30T14:04:16.363Z,1.85
2024-04-30T14:06:43.984Z,7.88
2024-04-30T14:09:11.691Z,5.97
2024-04-30T14:11:41.612Z,2.78
2024-04-30T14:14:10.834Z,5.95
2024-04-30T14:16:43.502Z,9.90
2024-04-30T14:19:10.610Z,3.03
2024-04-30T14:21:39.763Z,9.93
2024-04-30T14:24:16.379Z,4.20
2024-04-30T14:26:59.956Z,4.28
2024-04-30T14:29:40.906Z,1.27
2024-04-30T14:32:08.233Z,6.65
2024-04-30T14:34:37.479Z,4.20
2024-04-30T14:37:04.581Z,7.88
2024-04-30T14:39:31.433Z,3.63
2024-04-30T14:42:00.238Z,3.13
2024-04-30T14:44:27.613Z,4.88
2024-04-30T14:46:54.562Z,2.20
2024-04-30T14:49:21.833Z,3.53
2024-04-30T14:51:48.963Z,3.28
2024-04-30T14:54:16.043Z,3.50
2024-04-30T14:56:43.148Z,4.18
2024-04-30T14:59:10.019Z,7.63
2024-04-30T15:01:46.279Z,3.75
2024-04-30T15:04:13.656Z,2.13
2024-04-30T15:06:40.821Z,6.85
2024-04-30T15:09:11.144Z,3.05
2024-04-30T15:11:38.174Z,2.03
2024-04-30T15:14:08.011Z,2.33
2024-04-30T15:16:35.281Z,2.78
2024-04-30T15:19:02.304Z,3.40
2024-04-30T15:21:29.284Z,14.73
2024-04-30T15:23:56.218Z,6.22
2024-04-30T15:26:23.131Z,7.65
2024-04-30T15:28:50.126Z,8.93
2024-04-30T15:31:26.090Z,5.00
2024-04-30T15:33:53.027Z,6.93
2024-04-30T15:36:19.942Z,2.78
2024-04-30T15:38:47.020Z,5.00
2024-04-30T15:41:21.524Z,2.40
2024-04-30T15:43:48.566Z,2.75
2024-04-30T15:46:15.525Z,1.58
2024-04-30T15:48:42.544Z,5.10
2024-04-30T15:51:12.486Z,2.30
2024-04-30T15:53:39.379Z,3.20
2024-04-30T15:56:17.708Z,5.20
2024-04-30T15:58:46.915Z,2.90
2024-04-30T16:01:14.407Z,10.57
2024-04-30T16:03:41.504Z,3.47
2024-04-30T16:06:09.498Z,3.08
2024-04-30T16:08:36.721Z,1.75
2024-04-30T16:11:10.598Z,5.15
2024-04-30T16:13:39.912Z,3.20
2024-04-30T16:16:15.805Z,5.20
2024-04-30T16:18:46.546Z,3.83
2024-04-30T16:21:14.342Z,4.38
2024-04-30T16:23:43.235Z,1.95
2024-04-30T16:26:10.652Z,3.15
2024-04-30T16:28:37.572Z,4.00
2024-04-30T16:31:04.722Z,6.38
2024-04-30T16:33:32.052Z,4.35
2024-04-30T16:35:59.349Z,4.80
2024-04-30T16:38:26.385Z,2.88
2024-04-30T16:40:53.332Z,2.00
2024-04-30T16:43:20.265Z,2.50
2024-04-30T16:45:47.261Z,4.10
2024-04-30T16:48:14.361Z,3.88
2024-04-30T16:50:41.372Z,3.50
2024-04-30T16:53:11.940Z,3.25
2024-04-30T16:55:39.071Z,3.92
2024-04-30T16:58:06.555Z,2.85
2024-04-30T17:00:33.594Z,3.22
2024-04-30T17:03:00.779Z,3.42
2024-04-30T17:05:28.099Z,2.75
2024-04-30T17:07:55.186Z,2.30
2024-04-30T17:10:22.092Z,2.88
2024-04-30T17:12:50.259Z,3.20
2024-04-30T17:15:17.306Z,3.13
2024-04-30T17:17:44.432Z,2.72
2024-04-30T17:20:11.398Z,1.95
2024-04-30T17:22:38.331Z,2.63
2024-04-30T17:25:07.313Z,3.00
2024-04-30T17:27:35.054Z,5.28
2024-04-30T17:30:02.170Z,3.72
2024-04-30T17:32:29.659Z,4.78
2024-04-30T17:34:56.849Z,2.90
2024-04-30T17:37:24.135Z,5.43
2024-04-30T17:39:51.170Z,2.60
2024-04-30T17:42:18.324Z,2.53
2024-04-30T17:44:45.354Z,3.33
2024-04-30T17:47:12.444Z,2.78
2024-04-30T17:49:39.521Z,3.60
2024-04-30T17:52:06.617Z,3.60
2024-04-30T17:54:33.678Z,5.70
2024-04-30T17:57:00.598Z,4.13
2024-04-30T17:59:28.041Z,3.53
2024-04-30T18:01:55.056Z,5.60
2024-04-30T18:04:22.225Z,8.13
2024-04-30T18:06:49.397Z,5.80
2024-04-30T18:09:16.387Z,2.28
2024-04-30T18:11:44.594Z,5.18
2024-04-30T18:14:11.778Z,3.42
2024-04-30T18:16:41.635Z,2.75
2024-04-30T18:19:09.372Z,3.60
2024-04-30T18:21:37.959Z,3.55
2024-04-30T18:24:07.460Z,6.13
2024-04-30T18:26:41.746Z,2.75
2024-04-30T18:29:09.034Z,6.60
2024-04-30T18:31:36.159Z,2.60
2024-04-30T18:34:03.582Z,3.25
2024-04-30T18:36:30.824Z,4.03
2024-04-30T18:38:58.173Z,3.13
2024-04-30T18:41:31.084Z,3.35
2024-04-30T18:43:59.083Z,2.65
2024-04-30T18:46:26.082Z,6.68
2024-04-30T18:48:53.353Z,3.17
2024-04-30T18:51:20.920Z,2.42
2024-04-30T18:53:47.930Z,4.15
2024-04-30T18:56:17.741Z,5.50
2024-04-30T18:58:46.054Z,3.63
2024-04-30T19:01:13.436Z,2.45
2024-04-30T19:03:40.702Z,5.47
2024-04-30T19:06:09.230Z,3.78
2024-04-30T19:08:36.909Z,3.42
2024-04-30T19:11:08.633Z,4.38
2024-04-30T19:13:36.133Z,6.22
2024-04-30T19:16:06.809Z,6.38
2024-04-30T19:18:34.157Z,3.03
2024-04-30T19:21:08.003Z,4.15
2024-04-30T19:23:35.330Z,4.63
2024-04-30T19:26:02.967Z,5.80
2024-04-30T19:28:29.961Z,2.47
2024-04-30T19:30:57.182Z,3.58
2024-04-30T19:33:24.334Z,2.40
2024-04-30T19:35:51.411Z,3.90
2024-04-30T19:38:18.416Z,4.72
2024-04-30T19:40:45.529Z,4.32
2024-04-30T19:43:16.386Z,3.70
2024-04-30T19:45:44.125Z,5.03
2024-04-30T19:48:16.811Z,2.80
2024-04-30T19:50:46.037Z,7.35
2024-04-30T19:53:13.168Z,3.33
2024-04-30T19:55:41.200Z,5.18
2024-04-30T19:58:08.403Z,3.80
2024-04-30T20:00:35.539Z,4.03
2024-04-30T20:03:02.824Z,3.70
2024-04-30T20:05:29.826Z,3.90
2024-04-30T20:07:58.869Z,2.97
2024-04-30T20:10:26.171Z,3.70
2024-04-30T20:12:54.528Z,3.45
2024-04-30T20:15:21.854Z,3.10
2024-04-30T20:17:48.963Z,2.63
2024-04-30T20:20:15.873Z,4.32
2024-04-30T20:22:45.468Z,7.35
2024-04-30T20:25:13.530Z,4.97
2024-04-30T20:27:41.046Z,6.22
2024-04-30T20:30:11.326Z,3.40
2024-04-30T20:32:39.709Z,4.70
2024-04-30T20:35:07.525Z,3.92
2024-04-30T20:37:34.494Z,3.78
2024-04-30T20:40:01.491Z,6.05
2024-04-30T20:42:28.584Z,3.42
2024-04-30T20:44:56.130Z,5.43
2024-04-30T20:47:23.312Z,5.85
2024-04-30T20:49:50.289Z,3.55
2024-04-30T20:52:17.271Z,3.72
2024-04-30T20:54:44.223Z,3.78
2024-04-30T20:57:11.083Z,2.55
2024-04-30T20:59:38.033Z,3.42
2024-04-30T21:02:08.169Z,5.60
2024-04-30T21:04:35.166Z,3.90
2024-04-30T21:07:02.274Z,3.65
2024-04-30T21:09:29.348Z,4.82
2024-04-30T21:11:56.355Z,5.90
2024-04-30T21:14:23.277Z,2.60
2024-04-30T21:16:50.285Z,3.20
2024-04-30T21:19:17.465Z,4.10
2024-04-30T21:21:44.517Z,4.03
2024-04-30T21:24:12.336Z,9.85
2024-04-30T21:26:41.381Z,4.53
2024-04-30T21:29:08.370Z,2.42
2024-04-30T21:31:35.372Z,3.42
2024-04-30T21:34:02.332Z,2.45
2024-04-30T21:36:29.765Z,2.33
2024-04-30T21:38:56.706Z,4.80
2024-04-30T21:41:23.597Z,3.25
2024-04-30T21:43:50.485Z,3.92
2024-04-30T21:46:17.475Z,3.05
2024-04-30T21:48:44.422Z,4.05
2024-04-30T21:51:11.400Z,2.97
2024-04-30T21:53:39.606Z,3.15
2024-04-30T21:56:06.813Z,3.67
2024-04-30T21:58:33.707Z,4.90
2024-04-30T22:01:00.897Z,3.60
2024-04-30T22:03:37.060Z,3.42
2024-04-30T22:06:04.236Z,3.33
2024-04-30T22:08:32.275Z,2.03
2024-04-30T22:10:59.374Z,2.53
2024-04-30T22:13:26.311Z,3.72
2024-04-30T22:15:53.241Z,4.63
2024-04-30T22:18:20.284Z,2.28
2024-04-30T22:20:47.230Z,3.90
2024-04-30T22:23:14.240Z,3.05
2024-04-30T22:25:41.238Z,5.63
2024-04-30T22:28:08.230Z,4.65
2024-04-30T22:30:35.157Z,5.60
2024-04-30T22:33:02.250Z,5.22
2024-04-30T22:35:29.180Z,2.75
2024-04-30T22:37:56.053Z,3.03
2024-04-30T22:40:23.009Z,4.43
2024-04-30T22:42:49.981Z,3.75
2024-04-30T22:45:16.980Z,4.25
2024-04-30T22:47:44.185Z,4.88
2024-04-30T22:50:11.198Z,3.45
2024-04-30T22:52:38.143Z,7.05
2024-04-30T22:55:05.625Z,5.70
2024-04-30T22:57:32.630Z,3.33
2024-04-30T22:59:59.596Z,3.72
2024-04-30T23:02:29.597Z,3.13
2024-04-30T23:04:56.673Z,2.17
2024-04-30T23:07:23.728Z,5.38
2024-04-30T23:09:50.820Z,2.67
2024-04-30T23:12:17.733Z,2.92
2024-04-30T23:14:44.809Z,2.95
2024-04-30T23:17:11.895Z,3.20
2024-04-30T23:19:38.802Z,7.15
2024-04-30T23:22:15.021Z,3.85
2024-04-30T23:24:42.100Z,3.90
2024-04-30T23:27:09.032Z,4.30
2024-04-30T23:29:35.976Z,2.45
2024-04-30T23:32:03.058Z,3.53
2024-04-30T23:34:29.964Z,3.33
2024-04-30T23:36:56.979Z,4.15
2024-04-30T23:39:24.494Z,7.82
2024-04-30T23:41:51.412Z,6.75
2024-04-30T23:44:19.637Z,4.75
2024-04-30T23:46:46.633Z,2.47
2024-04-30T23:49:13.719Z,2.28
2024-04-30T23:51:40.761Z,3.50
2024-04-30T23:54:07.813Z,2.88
2024-04-30T23:56:34.755Z,2.50
2024-04-30T23:59:02.460Z,2.42
